Elk Plain, Washington
Current Conditions -  °F | °C
As of 10:58 AM on Tuesday 21 Oct 2014 (Local Time) from KTCM Reporting Station
Broken Clouds Broken Clouds  
Wind Chill: 58°   Ceiling: 9500
Heat Index: 58°   Visibility: 10mi
Dew Point: 53°   Wind: 13mph
Humidity: 84%   Direction: 170°S
Pressure: 29.93"   Gusts: NA
Location:  47.06°N, 122.4°W
Report Text: KTCM 211758Z AUTO 17011KT 10SM SCT065 BKN095 14/12 A2993 RMK AO2 SLP139 60003 T01440117 10144 20107 52013 $
Loading
Personal Weather Stations






























Interactive Weather Map
Tropical Storm Tracking
New forecast layout! Learn more

10-Day Weather Forecast

Advertisements
Track Severe Weather on mobile